sensor_id;sensor_type;location;lat;lon;timestamp;P1;durP1;ratioP1;P2;durP2;ratioP2
962;SDS011;469;48.770;9.176;2022-10-31T00:00:09;12.30;;;4.07;;
962;SDS011;469;48.770;9.176;2022-10-31T00:02:36;10.90;;;3.50;;
962;SDS011;469;48.770;9.176;2022-10-31T00:05:06;20.05;;;4.45;;
962;SDS011;469;48.770;9.176;2022-10-31T00:07:33;8.30;;;3.67;;
962;SDS011;469;48.770;9.176;2022-10-31T00:10:00;15.82;;;3.78;;
962;SDS011;469;48.770;9.176;2022-10-31T00:12:27;11.20;;;3.90;;
962;SDS011;469;48.770;9.176;2022-10-31T00:14:54;14.32;;;4.43;;
962;SDS011;469;48.770;9.176;2022-10-31T00:17:21;10.23;;;3.97;;
962;SDS011;469;48.770;9.176;2022-10-31T00:19:48;13.05;;;4.80;;
962;SDS011;469;48.770;9.176;2022-10-31T00:22:16;9.50;;;4.50;;
962;SDS011;469;48.770;9.176;2022-10-31T00:24:44;18.90;;;5.80;;
962;SDS011;469;48.770;9.176;2022-10-31T00:27:11;6.53;;;3.60;;
962;SDS011;469;48.770;9.176;2022-10-31T00:29:38;11.35;;;5.20;;
962;SDS011;469;48.770;9.176;2022-10-31T00:32:05;13.25;;;4.05;;
962;SDS011;469;48.770;9.176;2022-10-31T00:34:32;11.38;;;4.28;;
962;SDS011;469;48.770;9.176;2022-10-31T00:36:59;13.40;;;5.15;;
962;SDS011;469;48.770;9.176;2022-10-31T00:39:27;9.63;;;4.07;;
962;SDS011;469;48.770;9.176;2022-10-31T00:41:54;16.63;;;4.30;;
962;SDS011;469;48.770;9.176;2022-10-31T00:44:21;17.00;;;4.97;;
962;SDS011;469;48.770;9.176;2022-10-31T00:46:48;11.45;;;4.60;;
962;SDS011;469;48.770;9.176;2022-10-31T00:49:15;11.88;;;4.95;;
962;SDS011;469;48.770;9.176;2022-10-31T00:51:42;20.90;;;6.13;;
962;SDS011;469;48.770;9.176;2022-10-31T00:54:09;12.43;;;4.10;;
962;SDS011;469;48.770;9.176;2022-10-31T00:56:38;9.52;;;4.00;;
962;SDS011;469;48.770;9.176;2022-10-31T00:59:05;15.60;;;4.97;;
962;SDS011;469;48.770;9.176;2022-10-31T01:01:32;9.25;;;4.03;;
962;SDS011;469;48.770;9.176;2022-10-31T01:03:59;9.93;;;4.60;;
962;SDS011;469;48.770;9.176;2022-10-31T01:06:26;11.90;;;3.78;;
962;SDS011;469;48.770;9.176;2022-10-31T01:08:53;14.65;;;4.63;;
962;SDS011;469;48.770;9.176;2022-10-31T01:11:21;11.02;;;4.10;;
962;SDS011;469;48.770;9.176;2022-10-31T01:13:51;10.38;;;4.03;;
962;SDS011;469;48.770;9.176;2022-10-31T01:16:19;11.60;;;4.43;;
962;SDS011;469;48.770;9.176;2022-10-31T01:18:46;14.50;;;4.20;;
962;SDS011;469;48.770;9.176;2022-10-31T01:21:14;17.77;;;5.68;;
962;SDS011;469;48.770;9.176;2022-10-31T01:23:41;17.13;;;4.32;;
962;SDS011;469;48.770;9.176;2022-10-31T01:26:09;9.63;;;3.55;;
962;SDS011;469;48.770;9.176;2022-10-31T01:28:38;10.20;;;4.45;;
962;SDS011;469;48.770;9.176;2022-10-31T01:31:07;20.27;;;4.25;;
962;SDS011;469;48.770;9.176;2022-10-31T01:33:35;14.15;;;3.55;;
962;SDS011;469;48.770;9.176;2022-10-31T01:36:10;13.23;;;4.03;;
962;SDS011;469;48.770;9.176;2022-10-31T01:38:37;11.50;;;4.15;;
962;SDS011;469;48.770;9.176;2022-10-31T01:41:04;14.52;;;5.60;;
962;SDS011;469;48.770;9.176;2022-10-31T01:43:41;8.10;;;3.50;;
962;SDS011;469;48.770;9.176;2022-10-31T01:46:10;14.50;;;4.85;;
962;SDS011;469;48.770;9.176;2022-10-31T01:48:37;6.78;;;3.47;;
962;SDS011;469;48.770;9.176;2022-10-31T01:51:05;8.88;;;3.53;;
962;SDS011;469;48.770;9.176;2022-10-31T01:53:32;12.18;;;3.58;;
962;SDS011;469;48.770;9.176;2022-10-31T01:56:00;10.85;;;4.35;;
962;SDS011;469;48.770;9.176;2022-10-31T01:58:27;13.25;;;4.18;;
962;SDS011;469;48.770;9.176;2022-10-31T02:00:57;9.15;;;4.70;;
962;SDS011;469;48.770;9.176;2022-10-31T02:03:26;16.52;;;4.40;;
962;SDS011;469;48.770;9.176;2022-10-31T02:05:54;13.32;;;4.72;;
962;SDS011;469;48.770;9.176;2022-10-31T02:08:23;9.10;;;3.83;;
962;SDS011;469;48.770;9.176;2022-10-31T02:10:52;13.65;;;3.95;;
962;SDS011;469;48.770;9.176;2022-10-31T02:13:19;15.63;;;4.25;;
962;SDS011;469;48.770;9.176;2022-10-31T02:15:47;12.82;;;3.90;;
962;SDS011;469;48.770;9.176;2022-10-31T02:18:14;11.52;;;4.55;;
962;SDS011;469;48.770;9.176;2022-10-31T02:20:44;10.88;;;4.15;;
962;SDS011;469;48.770;9.176;2022-10-31T02:26:21;9.55;;;4.50;;
962;SDS011;469;48.770;9.176;2022-10-31T02:29:02;13.80;;;4.38;;
962;SDS011;469;48.770;9.176;2022-10-31T02:31:35;12.73;;;4.30;;
962;SDS011;469;48.770;9.176;2022-10-31T02:34:07;10.32;;;3.38;;
962;SDS011;469;48.770;9.176;2022-10-31T02:36:39;14.57;;;3.63;;
962;SDS011;469;48.770;9.176;2022-10-31T02:39:09;15.55;;;4.60;;
962;SDS011;469;48.770;9.176;2022-10-31T02:41:41;14.23;;;4.10;;
962;SDS011;469;48.770;9.176;2022-10-31T02:44:12;11.50;;;4.35;;
962;SDS011;469;48.770;9.176;2022-10-31T02:46:44;10.25;;;3.13;;
962;SDS011;469;48.770;9.176;2022-10-31T02:49:17;14.43;;;4.32;;
962;SDS011;469;48.770;9.176;2022-10-31T02:51:45;10.38;;;3.97;;
962;SDS011;469;48.770;9.176;2022-10-31T02:54:17;10.15;;;3.63;;
962;SDS011;469;48.770;9.176;2022-10-31T02:56:44;11.02;;;3.78;;
962;SDS011;469;48.770;9.176;2022-10-31T02:59:12;9.48;;;3.72;;
962;SDS011;469;48.770;9.176;2022-10-31T03:01:42;7.93;;;3.95;;
962;SDS011;469;48.770;9.176;2022-10-31T03:04:29;10.25;;;3.60;;
962;SDS011;469;48.770;9.176;2022-10-31T03:07:00;10.43;;;3.88;;
962;SDS011;469;48.770;9.176;2022-10-31T03:09:32;14.00;;;4.20;;
962;SDS011;469;48.770;9.176;2022-10-31T03:12:02;11.32;;;4.22;;
962;SDS011;469;48.770;9.176;2022-10-31T03:14:33;12.05;;;4.78;;
962;SDS011;469;48.770;9.176;2022-10-31T03:17:02;11.05;;;3.67;;
962;SDS011;469;48.770;9.176;2022-10-31T03:19:34;12.85;;;4.13;;
962;SDS011;469;48.770;9.176;2022-10-31T03:22:05;8.43;;;3.60;;
962;SDS011;469;48.770;9.176;2022-10-31T03:24:34;10.98;;;4.30;;
962;SDS011;469;48.770;9.176;2022-10-31T03:27:02;11.60;;;3.83;;
962;SDS011;469;48.770;9.176;2022-10-31T03:29:31;6.40;;;3.38;;
962;SDS011;469;48.770;9.176;2022-10-31T03:32:01;7.63;;;3.15;;
962;SDS011;469;48.770;9.176;2022-10-31T03:34:28;8.82;;;3.70;;
962;SDS011;469;48.770;9.176;2022-10-31T03:36:59;10.68;;;3.90;;
962;SDS011;469;48.770;9.176;2022-10-31T03:39:26;13.25;;;3.65;;
962;SDS011;469;48.770;9.176;2022-10-31T03:41:55;12.45;;;4.38;;
962;SDS011;469;48.770;9.176;2022-10-31T03:44:23;12.02;;;5.20;;
962;SDS011;469;48.770;9.176;2022-10-31T03:46:50;14.73;;;3.60;;
962;SDS011;469;48.770;9.176;2022-10-31T03:49:18;12.38;;;3.88;;
962;SDS011;469;48.770;9.176;2022-10-31T03:51:45;11.18;;;3.95;;
962;SDS011;469;48.770;9.176;2022-10-31T03:54:16;12.07;;;3.83;;
962;SDS011;469;48.770;9.176;2022-10-31T03:56:48;10.35;;;4.40;;
962;SDS011;469;48.770;9.176;2022-10-31T03:59:17;15.60;;;4.45;;
962;SDS011;469;48.770;9.176;2022-10-31T04:01:46;15.10;;;4.45;;
962;SDS011;469;48.770;9.176;2022-10-31T04:04:14;13.68;;;4.88;;
962;SDS011;469;48.770;9.176;2022-10-31T04:06:42;10.70;;;4.72;;
962;SDS011;469;48.770;9.176;2022-10-31T04:09:09;17.65;;;5.93;;
962;SDS011;469;48.770;9.176;2022-10-31T04:11:40;17.02;;;4.25;;
962;SDS011;469;48.770;9.176;2022-10-31T04:14:09;35.50;;;4.47;;
962;SDS011;469;48.770;9.176;2022-10-31T04:16:36;11.05;;;4.00;;
962;SDS011;469;48.770;9.176;2022-10-31T04:19:04;10.93;;;3.70;;
962;SDS011;469;48.770;9.176;2022-10-31T04:21:31;23.17;;;4.72;;
962;SDS011;469;48.770;9.176;2022-10-31T04:23:58;10.93;;;4.85;;
962;SDS011;469;48.770;9.176;2022-10-31T04:26:25;9.85;;;4.53;;
962;SDS011;469;48.770;9.176;2022-10-31T04:28:53;17.60;;;4.30;;
962;SDS011;469;48.770;9.176;2022-10-31T04:31:21;10.52;;;4.38;;
962;SDS011;469;48.770;9.176;2022-10-31T04:33:48;9.02;;;4.47;;
962;SDS011;469;48.770;9.176;2022-10-31T04:36:15;14.77;;;5.85;;
962;SDS011;469;48.770;9.176;2022-10-31T04:38:42;18.13;;;5.90;;
962;SDS011;469;48.770;9.176;2022-10-31T04:41:09;15.52;;;4.93;;
962;SDS011;469;48.770;9.176;2022-10-31T04:43:36;12.77;;;4.55;;
962;SDS011;469;48.770;9.176;2022-10-31T04:46:04;16.00;;;4.03;;
962;SDS011;469;48.770;9.176;2022-10-31T04:48:31;19.58;;;5.47;;
962;SDS011;469;48.770;9.176;2022-10-31T04:50:59;14.77;;;5.50;;
962;SDS011;469;48.770;9.176;2022-10-31T04:53:26;11.88;;;4.43;;
962;SDS011;469;48.770;9.176;2022-10-31T04:55:53;16.73;;;5.47;;
962;SDS011;469;48.770;9.176;2022-10-31T04:58:20;7.50;;;3.85;;
962;SDS011;469;48.770;9.176;2022-10-31T05:00:47;10.50;;;4.57;;
962;SDS011;469;48.770;9.176;2022-10-31T05:03:15;8.43;;;3.75;;
962;SDS011;469;48.770;9.176;2022-10-31T05:05:42;14.45;;;5.25;;
962;SDS011;469;48.770;9.176;2022-10-31T05:08:09;9.13;;;3.78;;
962;SDS011;469;48.770;9.176;2022-10-31T05:10:37;15.80;;;3.63;;
962;SDS011;469;48.770;9.176;2022-10-31T05:13:04;10.30;;;4.35;;
962;SDS011;469;48.770;9.176;2022-10-31T05:15:31;16.10;;;4.70;;
962;SDS011;469;48.770;9.176;2022-10-31T05:17:58;16.17;;;6.45;;
962;SDS011;469;48.770;9.176;2022-10-31T05:20:27;10.32;;;4.28;;
962;SDS011;469;48.770;9.176;2022-10-31T05:22:55;16.20;;;5.50;;
962;SDS011;469;48.770;9.176;2022-10-31T05:25:23;14.93;;;5.28;;
962;SDS011;469;48.770;9.176;2022-10-31T05:27:51;14.55;;;6.22;;
962;SDS011;469;48.770;9.176;2022-10-31T05:30:22;12.70;;;4.47;;
962;SDS011;469;48.770;9.176;2022-10-31T05:32:50;12.63;;;5.38;;
962;SDS011;469;48.770;9.176;2022-10-31T05:35:18;10.48;;;4.70;;
962;SDS011;469;48.770;9.176;2022-10-31T05:37:46;12.77;;;4.80;;
962;SDS011;469;48.770;9.176;2022-10-31T05:40:14;11.93;;;3.92;;
962;SDS011;469;48.770;9.176;2022-10-31T05:42:42;13.75;;;4.10;;
962;SDS011;469;48.770;9.176;2022-10-31T05:45:09;13.55;;;4.13;;
962;SDS011;469;48.770;9.176;2022-10-31T05:47:37;10.38;;;4.05;;
962;SDS011;469;48.770;9.176;2022-10-31T05:50:04;16.10;;;4.40;;
962;SDS011;469;48.770;9.176;2022-10-31T05:52:31;11.20;;;4.40;;
962;SDS011;469;48.770;9.176;2022-10-31T05:55:00;19.20;;;4.63;;
962;SDS011;469;48.770;9.176;2022-10-31T05:57:31;10.48;;;4.60;;
962;SDS011;469;48.770;9.176;2022-10-31T05:59:58;24.17;;;5.03;;
962;SDS011;469;48.770;9.176;2022-10-31T06:02:25;12.27;;;4.93;;
962;SDS011;469;48.770;9.176;2022-10-31T06:04:56;14.63;;;4.65;;
962;SDS011;469;48.770;9.176;2022-10-31T06:07:23;10.43;;;3.72;;
962;SDS011;469;48.770;9.176;2022-10-31T06:09:50;12.13;;;3.95;;
962;SDS011;469;48.770;9.176;2022-10-31T06:12:19;10.13;;;4.40;;
962;SDS011;469;48.770;9.176;2022-10-31T06:14:46;11.57;;;4.63;;
962;SDS011;469;48.770;9.176;2022-10-31T06:17:15;11.75;;;4.75;;
962;SDS011;469;48.770;9.176;2022-10-31T06:19:42;12.60;;;5.07;;
962;SDS011;469;48.770;9.176;2022-10-31T06:22:09;12.02;;;4.40;;
962;SDS011;469;48.770;9.176;2022-10-31T06:24:37;14.98;;;4.82;;
962;SDS011;469;48.770;9.176;2022-10-31T06:27:04;12.73;;;4.47;;
962;SDS011;469;48.770;9.176;2022-10-31T06:29:33;23.38;;;4.47;;
962;SDS011;469;48.770;9.176;2022-10-31T06:32:00;14.65;;;5.70;;
962;SDS011;469;48.770;9.176;2022-10-31T06:34:27;14.80;;;4.20;;
962;SDS011;469;48.770;9.176;2022-10-31T06:36:54;14.38;;;4.28;;
962;SDS011;469;48.770;9.176;2022-10-31T06:39:23;19.38;;;4.53;;
962;SDS011;469;48.770;9.176;2022-10-31T06:41:50;9.10;;;4.40;;
962;SDS011;469;48.770;9.176;2022-10-31T06:44:17;18.15;;;4.18;;
962;SDS011;469;48.770;9.176;2022-10-31T06:46:46;13.30;;;4.60;;
962;SDS011;469;48.770;9.176;2022-10-31T06:49:14;12.63;;;4.97;;
962;SDS011;469;48.770;9.176;2022-10-31T06:51:41;18.08;;;3.80;;
962;SDS011;469;48.770;9.176;2022-10-31T06:54:10;9.00;;;3.90;;
962;SDS011;469;48.770;9.176;2022-10-31T06:56:37;15.00;;;4.55;;
962;SDS011;469;48.770;9.176;2022-10-31T06:59:04;19.90;;;4.35;;
962;SDS011;469;48.770;9.176;2022-10-31T07:01:31;9.73;;;4.35;;
962;SDS011;469;48.770;9.176;2022-10-31T07:04:00;9.73;;;4.30;;
962;SDS011;469;48.770;9.176;2022-10-31T07:06:27;12.93;;;4.78;;
962;SDS011;469;48.770;9.176;2022-10-31T07:08:54;15.60;;;4.78;;
962;SDS011;469;48.770;9.176;2022-10-31T07:11:21;15.32;;;4.95;;
962;SDS011;469;48.770;9.176;2022-10-31T07:13:48;20.60;;;4.70;;
962;SDS011;469;48.770;9.176;2022-10-31T07:16:15;16.02;;;4.50;;
962;SDS011;469;48.770;9.176;2022-10-31T07:18:42;13.90;;;6.10;;
962;SDS011;469;48.770;9.176;2022-10-31T07:21:11;14.27;;;5.55;;
962;SDS011;469;48.770;9.176;2022-10-31T07:23:39;17.90;;;5.35;;
962;SDS011;469;48.770;9.176;2022-10-31T07:26:07;11.63;;;5.00;;
962;SDS011;469;48.770;9.176;2022-10-31T07:28:34;13.25;;;4.90;;
962;SDS011;469;48.770;9.176;2022-10-31T07:31:01;17.05;;;4.97;;
962;SDS011;469;48.770;9.176;2022-10-31T07:33:28;8.95;;;4.55;;
962;SDS011;469;48.770;9.176;2022-10-31T07:35:55;13.60;;;5.43;;
962;SDS011;469;48.770;9.176;2022-10-31T07:38:24;9.80;;;5.00;;
962;SDS011;469;48.770;9.176;2022-10-31T07:40:51;13.00;;;5.20;;
962;SDS011;469;48.770;9.176;2022-10-31T07:43:19;13.68;;;4.88;;
962;SDS011;469;48.770;9.176;2022-10-31T07:45:51;13.60;;;5.78;;
962;SDS011;469;48.770;9.176;2022-10-31T07:48:18;23.33;;;4.70;;
962;SDS011;469;48.770;9.176;2022-10-31T07:50:45;16.23;;;5.07;;
962;SDS011;469;48.770;9.176;2022-10-31T07:53:13;17.50;;;4.95;;
962;SDS011;469;48.770;9.176;2022-10-31T07:55:42;11.50;;;4.50;;
962;SDS011;469;48.770;9.176;2022-10-31T07:58:10;16.88;;;5.43;;
962;SDS011;469;48.770;9.176;2022-10-31T08:00:38;12.05;;;5.18;;
962;SDS011;469;48.770;9.176;2022-10-31T08:03:07;16.00;;;4.35;;
962;SDS011;469;48.770;9.176;2022-10-31T08:05:34;17.58;;;4.68;;
962;SDS011;469;48.770;9.176;2022-10-31T08:08:02;20.45;;;5.22;;
962;SDS011;469;48.770;9.176;2022-10-31T08:10:29;12.73;;;4.95;;
962;SDS011;469;48.770;9.176;2022-10-31T08:12:58;28.92;;;5.78;;
962;SDS011;469;48.770;9.176;2022-10-31T08:15:26;13.77;;;5.18;;
962;SDS011;469;48.770;9.176;2022-10-31T08:17:53;13.07;;;5.40;;
962;SDS011;469;48.770;9.176;2022-10-31T08:20:21;15.38;;;5.18;;
962;SDS011;469;48.770;9.176;2022-10-31T08:22:52;21.40;;;5.30;;
962;SDS011;469;48.770;9.176;2022-10-31T08:25:19;15.20;;;5.22;;
962;SDS011;469;48.770;9.176;2022-10-31T08:27:48;15.77;;;6.05;;
962;SDS011;469;48.770;9.176;2022-10-31T08:30:17;14.77;;;6.10;;
962;SDS011;469;48.770;9.176;2022-10-31T08:32:44;14.45;;;6.10;;
962;SDS011;469;48.770;9.176;2022-10-31T08:35:11;16.88;;;6.45;;
962;SDS011;469;48.770;9.176;2022-10-31T08:37:39;18.85;;;5.47;;
962;SDS011;469;48.770;9.176;2022-10-31T08:40:06;14.88;;;5.60;;
962;SDS011;469;48.770;9.176;2022-10-31T08:42:34;16.27;;;6.13;;
962;SDS011;469;48.770;9.176;2022-10-31T08:45:01;24.98;;;6.18;;
962;SDS011;469;48.770;9.176;2022-10-31T08:47:30;20.65;;;6.60;;
962;SDS011;469;48.770;9.176;2022-10-31T08:49:57;14.63;;;6.22;;
962;SDS011;469;48.770;9.176;2022-10-31T08:52:24;15.10;;;6.60;;
962;SDS011;469;48.770;9.176;2022-10-31T08:54:52;19.48;;;6.30;;
962;SDS011;469;48.770;9.176;2022-10-31T08:57:19;20.67;;;7.28;;
962;SDS011;469;48.770;9.176;2022-10-31T08:59:46;17.27;;;6.60;;
962;SDS011;469;48.770;9.176;2022-10-31T09:02:13;16.48;;;6.57;;
962;SDS011;469;48.770;9.176;2022-10-31T09:04:42;19.15;;;6.45;;
962;SDS011;469;48.770;9.176;2022-10-31T09:07:09;17.40;;;6.70;;
962;SDS011;469;48.770;9.176;2022-10-31T09:09:36;22.95;;;6.40;;
962;SDS011;469;48.770;9.176;2022-10-31T09:12:06;12.77;;;6.03;;
962;SDS011;469;48.770;9.176;2022-10-31T09:14:33;17.75;;;6.45;;
962;SDS011;469;48.770;9.176;2022-10-31T09:17:00;16.35;;;6.45;;
962;SDS011;469;48.770;9.176;2022-10-31T09:19:27;12.77;;;5.93;;
962;SDS011;469;48.770;9.176;2022-10-31T09:21:56;11.90;;;5.47;;
962;SDS011;469;48.770;9.176;2022-10-31T09:24:23;14.63;;;6.07;;
962;SDS011;469;48.770;9.176;2022-10-31T09:26:53;19.33;;;7.65;;
962;SDS011;469;48.770;9.176;2022-10-31T09:29:20;14.30;;;6.50;;
962;SDS011;469;48.770;9.176;2022-10-31T09:31:47;19.40;;;7.40;;
962;SDS011;469;48.770;9.176;2022-10-31T09:34:15;16.15;;;6.72;;
962;SDS011;469;48.770;9.176;2022-10-31T09:36:42;18.40;;;7.05;;
962;SDS011;469;48.770;9.176;2022-10-31T09:39:12;23.02;;;7.13;;
962;SDS011;469;48.770;9.176;2022-10-31T09:41:47;16.80;;;7.63;;
962;SDS011;469;48.770;9.176;2022-10-31T09:44:18;15.82;;;6.22;;
962;SDS011;469;48.770;9.176;2022-10-31T09:46:49;19.85;;;7.28;;
962;SDS011;469;48.770;9.176;2022-10-31T09:49:29;15.45;;;6.55;;
962;SDS011;469;48.770;9.176;2022-10-31T09:51:59;18.20;;;6.45;;
962;SDS011;469;48.770;9.176;2022-10-31T09:54:29;15.45;;;6.15;;
962;SDS011;469;48.770;9.176;2022-10-31T09:56:59;16.70;;;6.85;;
962;SDS011;469;48.770;9.176;2022-10-31T09:59:28;13.93;;;7.35;;
962;SDS011;469;48.770;9.176;2022-10-31T10:01:58;20.73;;;6.53;;
962;SDS011;469;48.770;9.176;2022-10-31T10:04:34;16.30;;;6.55;;
962;SDS011;469;48.770;9.176;2022-10-31T10:07:05;15.23;;;6.15;;
962;SDS011;469;48.770;9.176;2022-10-31T10:09:36;15.23;;;6.25;;
962;SDS011;469;48.770;9.176;2022-10-31T10:12:07;15.73;;;6.45;;
962;SDS011;469;48.770;9.176;2022-10-31T10:14:41;14.23;;;5.82;;
962;SDS011;469;48.770;9.176;2022-10-31T10:17:17;19.48;;;7.18;;
962;SDS011;469;48.770;9.176;2022-10-31T10:19:52;20.92;;;6.20;;
962;SDS011;469;48.770;9.176;2022-10-31T10:22:24;25.10;;;7.05;;
962;SDS011;469;48.770;9.176;2022-10-31T10:25:01;17.23;;;7.13;;
962;SDS011;469;48.770;9.176;2022-10-31T10:27:36;22.27;;;6.40;;
962;SDS011;469;48.770;9.176;2022-10-31T10:30:13;14.32;;;5.70;;
962;SDS011;469;48.770;9.176;2022-10-31T10:32:42;17.50;;;7.00;;
962;SDS011;469;48.770;9.176;2022-10-31T10:35:11;19.17;;;6.47;;
962;SDS011;469;48.770;9.176;2022-10-31T10:37:41;19.30;;;7.43;;
962;SDS011;469;48.770;9.176;2022-10-31T10:40:13;22.05;;;7.15;;
962;SDS011;469;48.770;9.176;2022-10-31T10:42:43;16.45;;;6.97;;
962;SDS011;469;48.770;9.176;2022-10-31T10:45:29;16.13;;;6.60;;
962;SDS011;469;48.770;9.176;2022-10-31T10:48:15;14.02;;;6.07;;
962;SDS011;469;48.770;9.176;2022-10-31T10:50:45;18.23;;;6.35;;
962;SDS011;469;48.770;9.176;2022-10-31T10:53:24;23.10;;;6.18;;
962;SDS011;469;48.770;9.176;2022-10-31T10:56:02;17.40;;;6.45;;
962;SDS011;469;48.770;9.176;2022-10-31T10:58:31;16.25;;;6.35;;
962;SDS011;469;48.770;9.176;2022-10-31T11:00:58;19.23;;;6.60;;
962;SDS011;469;48.770;9.176;2022-10-31T11:03:26;19.17;;;6.78;;
962;SDS011;469;48.770;9.176;2022-10-31T11:05:53;17.83;;;6.35;;
962;SDS011;469;48.770;9.176;2022-10-31T11:08:25;19.15;;;6.50;;
962;SDS011;469;48.770;9.176;2022-10-31T11:10:56;12.95;;;5.45;;
962;SDS011;469;48.770;9.176;2022-10-31T11:13:25;15.85;;;6.82;;
962;SDS011;469;48.770;9.176;2022-10-31T11:15:57;13.85;;;6.55;;
962;SDS011;469;48.770;9.176;2022-10-31T11:18:26;17.45;;;6.03;;
962;SDS011;469;48.770;9.176;2022-10-31T11:20:54;20.85;;;6.43;;
962;SDS011;469;48.770;9.176;2022-10-31T11:23:23;22.02;;;7.15;;
962;SDS011;469;48.770;9.176;2022-10-31T11:25:52;14.38;;;6.22;;
962;SDS011;469;48.770;9.176;2022-10-31T11:28:20;18.80;;;7.13;;
962;SDS011;469;48.770;9.176;2022-10-31T11:30:50;18.95;;;7.47;;
962;SDS011;469;48.770;9.176;2022-10-31T11:33:19;25.75;;;10.52;;
962;SDS011;469;48.770;9.176;2022-10-31T11:35:47;16.05;;;7.18;;
962;SDS011;469;48.770;9.176;2022-10-31T11:38:15;20.60;;;7.05;;
962;SDS011;469;48.770;9.176;2022-10-31T11:40:51;18.20;;;6.78;;
962;SDS011;469;48.770;9.176;2022-10-31T11:43:21;17.42;;;7.00;;
962;SDS011;469;48.770;9.176;2022-10-31T11:45:50;28.50;;;7.53;;
962;SDS011;469;48.770;9.176;2022-10-31T11:48:19;21.60;;;8.55;;
962;SDS011;469;48.770;9.176;2022-10-31T11:50:47;20.25;;;8.90;;
962;SDS011;469;48.770;9.176;2022-10-31T11:53:18;20.17;;;8.85;;
962;SDS011;469;48.770;9.176;2022-10-31T11:55:46;18.30;;;7.25;;
962;SDS011;469;48.770;9.176;2022-10-31T11:58:20;18.40;;;7.72;;
962;SDS011;469;48.770;9.176;2022-10-31T12:00:48;18.58;;;7.75;;
962;SDS011;469;48.770;9.176;2022-10-31T12:03:23;17.60;;;7.20;;
962;SDS011;469;48.770;9.176;2022-10-31T12:05:55;16.65;;;8.05;;
962;SDS011;469;48.770;9.176;2022-10-31T12:08:23;23.83;;;9.48;;
962;SDS011;469;48.770;9.176;2022-10-31T12:10:56;23.50;;;10.02;;
962;SDS011;469;48.770;9.176;2022-10-31T12:13:30;22.75;;;9.10;;
962;SDS011;469;48.770;9.176;2022-10-31T12:16:00;21.42;;;8.65;;
962;SDS011;469;48.770;9.176;2022-10-31T12:18:37;20.15;;;7.18;;
962;SDS011;469;48.770;9.176;2022-10-31T12:21:19;14.00;;;6.65;;
962;SDS011;469;48.770;9.176;2022-10-31T12:23:51;22.27;;;8.02;;
962;SDS011;469;48.770;9.176;2022-10-31T12:26:26;19.80;;;7.85;;
962;SDS011;469;48.770;9.176;2022-10-31T12:29:00;17.70;;;7.60;;
962;SDS011;469;48.770;9.176;2022-10-31T12:31:36;29.25;;;9.25;;
962;SDS011;469;48.770;9.176;2022-10-31T12:34:21;16.17;;;7.50;;
962;SDS011;469;48.770;9.176;2022-10-31T12:36:55;24.80;;;7.95;;
962;SDS011;469;48.770;9.176;2022-10-31T12:39:30;20.38;;;7.45;;
962;SDS011;469;48.770;9.176;2022-10-31T12:42:04;19.60;;;7.00;;
962;SDS011;469;48.770;9.176;2022-10-31T12:44:37;17.17;;;6.63;;
962;SDS011;469;48.770;9.176;2022-10-31T12:47:13;25.58;;;8.23;;
962;SDS011;469;48.770;9.176;2022-10-31T12:49:51;21.60;;;7.10;;
962;SDS011;469;48.770;9.176;2022-10-31T12:52:26;25.80;;;7.20;;
962;SDS011;469;48.770;9.176;2022-10-31T12:55:00;23.58;;;7.82;;
962;SDS011;469;48.770;9.176;2022-10-31T12:57:31;17.42;;;7.70;;
962;SDS011;469;48.770;9.176;2022-10-31T13:00:00;20.75;;;7.30;;
962;SDS011;469;48.770;9.176;2022-10-31T13:02:29;18.50;;;6.90;;
962;SDS011;469;48.770;9.176;2022-10-31T13:05:00;18.33;;;6.93;;
962;SDS011;469;48.770;9.176;2022-10-31T13:07:29;22.00;;;7.40;;
962;SDS011;469;48.770;9.176;2022-10-31T13:09:59;21.10;;;7.75;;
962;SDS011;469;48.770;9.176;2022-10-31T13:12:28;21.90;;;7.25;;
962;SDS011;469;48.770;9.176;2022-10-31T13:14:58;14.77;;;6.40;;
962;SDS011;469;48.770;9.176;2022-10-31T13:17:29;27.83;;;7.68;;
962;SDS011;469;48.770;9.176;2022-10-31T13:20:02;24.17;;;7.22;;
962;SDS011;469;48.770;9.176;2022-10-31T13:22:32;18.45;;;6.88;;
962;SDS011;469;48.770;9.176;2022-10-31T13:25:02;23.80;;;7.95;;
962;SDS011;469;48.770;9.176;2022-10-31T13:27:36;31.20;;;8.27;;
962;SDS011;469;48.770;9.176;2022-10-31T13:30:11;16.90;;;7.30;;
962;SDS011;469;48.770;9.176;2022-10-31T13:32:41;19.20;;;6.95;;
962;SDS011;469;48.770;9.176;2022-10-31T13:35:13;16.75;;;6.55;;
962;SDS011;469;48.770;9.176;2022-10-31T13:37:43;21.05;;;7.07;;
962;SDS011;469;48.770;9.176;2022-10-31T13:40:14;21.85;;;7.60;;
962;SDS011;469;48.770;9.176;2022-10-31T13:42:51;23.83;;;9.50;;
962;SDS011;469;48.770;9.176;2022-10-31T13:45:22;22.40;;;9.18;;
962;SDS011;469;48.770;9.176;2022-10-31T13:47:56;23.92;;;8.95;;
962;SDS011;469;48.770;9.176;2022-10-31T13:50:25;22.27;;;9.05;;
962;SDS011;469;48.770;9.176;2022-10-31T13:53:03;30.13;;;10.23;;
962;SDS011;469;48.770;9.176;2022-10-31T13:55:37;28.05;;;11.57;;
962;SDS011;469;48.770;9.176;2022-10-31T13:58:17;28.60;;;11.07;;
962;SDS011;469;48.770;9.176;2022-10-31T14:00:46;27.70;;;9.95;;
962;SDS011;469;48.770;9.176;2022-10-31T14:03:25;20.65;;;7.65;;
962;SDS011;469;48.770;9.176;2022-10-31T14:05:54;20.90;;;8.10;;
962;SDS011;469;48.770;9.176;2022-10-31T14:08:22;17.33;;;7.13;;
962;SDS011;469;48.770;9.176;2022-10-31T14:10:50;23.70;;;7.97;;
962;SDS011;469;48.770;9.176;2022-10-31T14:13:20;25.27;;;8.10;;
962;SDS011;469;48.770;9.176;2022-10-31T14:15:52;18.67;;;7.90;;
962;SDS011;469;48.770;9.176;2022-10-31T14:18:21;16.52;;;7.82;;
962;SDS011;469;48.770;9.176;2022-10-31T14:20:49;17.25;;;7.18;;
962;SDS011;469;48.770;9.176;2022-10-31T14:23:31;15.77;;;7.60;;
962;SDS011;469;48.770;9.176;2022-10-31T14:28:48;22.05;;;8.07;;
962;SDS011;469;48.770;9.176;2022-10-31T14:31:26;23.90;;;7.70;;
962;SDS011;469;48.770;9.176;2022-10-31T14:33:56;22.35;;;6.75;;
962;SDS011;469;48.770;9.176;2022-10-31T14:36:25;21.92;;;7.85;;
962;SDS011;469;48.770;9.176;2022-10-31T14:38:56;21.40;;;8.50;;
962;SDS011;469;48.770;9.176;2022-10-31T14:41:31;23.52;;;8.82;;
962;SDS011;469;48.770;9.176;2022-10-31T14:44:16;16.70;;;7.63;;
962;SDS011;469;48.770;9.176;2022-10-31T14:46:50;17.48;;;7.78;;
962;SDS011;469;48.770;9.176;2022-10-31T14:49:32;24.63;;;8.23;;
962;SDS011;469;48.770;9.176;2022-10-31T14:52:01;23.27;;;7.05;;
962;SDS011;469;48.770;9.176;2022-10-31T14:54:34;19.17;;;7.13;;
962;SDS011;469;48.770;9.176;2022-10-31T14:57:02;28.70;;;11.32;;
962;SDS011;469;48.770;9.176;2022-10-31T14:59:32;19.42;;;9.85;;
962;SDS011;469;48.770;9.176;2022-10-31T15:02:01;29.30;;;10.10;;
962;SDS011;469;48.770;9.176;2022-10-31T15:04:34;20.73;;;7.75;;
962;SDS011;469;48.770;9.176;2022-10-31T15:07:02;19.88;;;8.05;;
962;SDS011;469;48.770;9.176;2022-10-31T15:09:31;18.15;;;7.32;;
962;SDS011;469;48.770;9.176;2022-10-31T15:12:00;25.27;;;8.73;;
962;SDS011;469;48.770;9.176;2022-10-31T15:14:28;17.90;;;8.45;;
962;SDS011;469;48.770;9.176;2022-10-31T15:16:55;19.30;;;7.50;;
962;SDS011;469;48.770;9.176;2022-10-31T15:19:25;12.88;;;7.40;;
962;SDS011;469;48.770;9.176;2022-10-31T15:21:53;25.00;;;8.05;;
962;SDS011;469;48.770;9.176;2022-10-31T15:24:24;16.40;;;7.32;;
962;SDS011;469;48.770;9.176;2022-10-31T15:26:59;24.70;;;8.18;;
962;SDS011;469;48.770;9.176;2022-10-31T15:29:27;19.23;;;8.20;;
962;SDS011;469;48.770;9.176;2022-10-31T15:31:58;17.52;;;7.50;;
962;SDS011;469;48.770;9.176;2022-10-31T15:34:26;18.58;;;8.05;;
962;SDS011;469;48.770;9.176;2022-10-31T15:36:56;34.28;;;9.55;;
962;SDS011;469;48.770;9.176;2022-10-31T15:39:23;16.98;;;8.45;;
962;SDS011;469;48.770;9.176;2022-10-31T15:41:51;27.00;;;9.07;;
962;SDS011;469;48.770;9.176;2022-10-31T15:44:21;21.88;;;8.35;;
962;SDS011;469;48.770;9.176;2022-10-31T15:46:56;20.55;;;8.98;;
962;SDS011;469;48.770;9.176;2022-10-31T15:49:29;17.30;;;8.60;;
962;SDS011;469;48.770;9.176;2022-10-31T15:52:02;29.10;;;10.30;;